Time;durP1;ratioP1;P1;durP2;ratioP2;P2;SDS_P1;SDS_P2;PMS_P1;PMS_P2;Temp;Humidity;BMP_temperature;BMP_pressure;BME280_temperature;BME280_humidity;BME280_pressure;Samples;Min_cycle;Max_cycle;Signal;HPM_P1;HPM_P2
2023/09/25 00:01:30;;;;;;;4.03;1.80;;;;;;;;;;5078772;28;20248;-67
2023/09/25 00:03:58;;;;;;;3.50;1.53;;;;;;;;;;5079407;28;20233;-67
2023/09/25 00:06:26;;;;;;;1.50;1.40;;;;;;;;;;5079425;28;20670;-66
2023/09/25 00:08:54;;;;;;;2.47;1.70;;;;;;;;;;5079141;28;20238;-66
2023/09/25 00:11:22;;;;;;;2.77;1.87;;;;;;;;;;5079016;28;20272;-67
2023/09/25 00:13:50;;;;;;;4.43;2.13;;;;;;;;;;5079460;28;20214;-67
2023/09/25 00:16:20;;;;;;;3.83;2.10;;;;;;;;;;5079332;28;20773;-67
2023/09/25 00:18:48;;;;;;;1.87;1.63;;;;;;;;;;5079386;28;20212;-67
2023/09/25 00:21:16;;;;;;;3.87;1.60;;;;;;;;;;5079350;28;20233;-66
2023/09/25 00:23:45;;;;;;;5.20;2.20;;;;;;;;;;5078811;28;20661;-67
2023/09/25 00:26:13;;;;;;;2.83;2.20;;;;;;;;;;5079089;28;20214;-67
2023/09/25 00:28:42;;;;;;;5.17;2.70;;;;;;;;;;5079159;28;20210;-66
2023/09/25 00:31:10;;;;;;;4.30;2.47;;;;;;;;;;5078901;28;20720;-66
2023/09/25 00:33:40;;;;;;;2.27;2.17;;;;;;;;;;5079101;28;20210;-67
2023/09/25 00:36:08;;;;;;;4.63;2.57;;;;;;;;;;5079111;28;20293;-66
2023/09/25 00:38:36;;;;;;;3.70;2.50;;;;;;;;;;5078925;28;20252;-67
2023/09/25 00:41:04;;;;;;;5.77;2.23;;;;;;;;;;5078296;28;20226;-66
2023/09/25 00:43:32;;;;;;;5.37;2.83;;;;;;;;;;5072578;28;20198;-66
2023/09/25 00:46:00;;;;;;;5.23;2.50;;;;;;;;;;5072560;28;20205;-67
2023/09/25 00:48:30;;;;;;;3.73;2.60;;;;;;;;;;5078606;28;20210;-67
2023/09/25 00:51:00;;;;;;;4.57;2.33;;;;;;;;;;5078375;28;20222;-67
2023/09/25 00:53:30;;;;;;;4.67;2.40;;;;;;;;;;5078292;28;20291;-67
2023/09/25 00:55:58;;;;;;;3.27;2.20;;;;;;;;;;5078143;28;20209;-67
2023/09/25 00:58:26;;;;;;;3.43;2.13;;;;;;;;;;5078534;28;20206;-67
2023/09/25 01:00:54;;;;;;;2.90;2.20;;;;;;;;;;5078353;28;20260;-67
2023/09/25 01:03:23;;;;;;;4.13;2.33;;;;;;;;;;5078489;28;20206;-67
2023/09/25 01:05:51;;;;;;;3.90;1.70;;;;;;;;;;5078137;28;20226;-66
2023/09/25 01:08:20;;;;;;;4.37;2.43;;;;;;;;;;5078268;28;20207;-67
2023/09/25 01:10:49;;;;;;;6.70;2.10;;;;;;;;;;5077978;28;20242;-66
2023/09/25 01:13:18;;;;;;;4.60;2.30;;;;;;;;;;5078016;28;20590;-66
2023/09/25 01:15:46;;;;;;;2.13;1.90;;;;;;;;;;5078258;28;20209;-68
2023/09/25 01:18:14;;;;;;;2.77;1.83;;;;;;;;;;5075765;28;20195;-68
2023/09/25 01:20:42;;;;;;;2.67;1.83;;;;;;;;;;5070062;28;20241;-68
2023/09/25 01:23:12;;;;;;;4.50;1.53;;;;;;;;;;5077951;28;20214;-68
2023/09/25 01:25:40;;;;;;;5.37;1.90;;;;;;;;;;5077863;28;20233;-66
2023/09/25 01:28:09;;;;;;;2.47;2.10;;;;;;;;;;5078022;28;20216;-67
2023/09/25 01:30:38;;;;;;;6.43;1.80;;;;;;;;;;5078040;28;20231;-67
2023/09/25 01:33:06;;;;;;;3.67;1.67;;;;;;;;;;5077976;28;20217;-68
2023/09/25 01:35:35;;;;;;;1.77;1.50;;;;;;;;;;5077982;28;20249;-68
2023/09/25 01:38:04;;;;;;;2.33;1.57;;;;;;;;;;5077899;28;20210;-68
2023/09/25 01:40:34;;;;;;;1.43;1.33;;;;;;;;;;5077553;28;20224;-68
2023/09/25 01:43:02;;;;;;;3.57;1.70;;;;;;;;;;5077720;28;20554;-68
2023/09/25 01:45:30;;;;;;;1.53;1.33;;;;;;;;;;5077779;28;20283;-68
2023/09/25 01:47:58;;;;;;;2.73;1.63;;;;;;;;;;5077722;28;20210;-68
2023/09/25 01:50:28;;;;;;;2.57;1.40;;;;;;;;;;5077780;28;20226;-68
2023/09/25 01:52:57;;;;;;;2.43;1.47;;;;;;;;;;5077606;28;20241;-68
2023/09/25 01:55:28;;;;;;;4.70;1.50;;;;;;;;;;5077088;28;20209;-68
2023/09/25 01:57:57;;;;;;;5.47;1.70;;;;;;;;;;5077489;28;20692;-68
2023/09/25 02:00:25;;;;;;;2.30;1.50;;;;;;;;;;5077380;28;20223;-66
2023/09/25 02:02:53;;;;;;;1.90;1.53;;;;;;;;;;5077676;28;20209;-66
2023/09/25 02:05:22;;;;;;;3.90;2.20;;;;;;;;;;5077652;28;20229;-66
2023/09/25 02:07:50;;;;;;;3.33;1.73;;;;;;;;;;5077728;28;20289;-68
2023/09/25 02:10:18;;;;;;;4.57;1.50;;;;;;;;;;5077286;28;21182;-67
2023/09/25 02:12:46;;;;;;;5.67;1.87;;;;;;;;;;5077377;28;20214;-66
2023/09/25 02:15:16;;;;;;;3.97;2.20;;;;;;;;;;5077378;28;20588;-67
2023/09/25 02:17:44;;;;;;;2.90;1.90;;;;;;;;;;5077420;28;20232;-67
2023/09/25 02:20:19;;;;;;;3.17;2.03;;;;;;;;;;5077547;28;20226;-66
2023/09/25 02:22:47;;;;;;;2.67;1.90;;;;;;;;;;5077596;28;20205;-66
2023/09/25 02:25:16;;;;;;;2.27;2.07;;;;;;;;;;5076713;28;20226;-66
2023/09/25 02:27:44;;;;;;;3.90;2.20;;;;;;;;;;5077618;28;20213;-67
2023/09/25 02:30:13;;;;;;;3.13;1.67;;;;;;;;;;5076755;28;20689;-66
2023/09/25 02:32:43;;;;;;;2.30;1.90;;;;;;;;;;5078047;28;20206;-66
2023/09/25 02:35:12;;;;;;;3.57;2.20;;;;;;;;;;5076744;28;20642;-67
2023/09/25 02:37:40;;;;;;;1.97;1.73;;;;;;;;;;5077295;28;20202;-68
2023/09/25 02:40:13;;;;;;;4.00;1.70;;;;;;;;;;5076656;28;20222;-66
2023/09/25 02:42:42;;;;;;;2.60;1.70;;;;;;;;;;5077580;28;20260;-67
2023/09/25 02:45:10;;;;;;;3.37;1.63;;;;;;;;;;5076603;28;20219;-66
2023/09/25 02:47:39;;;;;;;1.83;1.60;;;;;;;;;;5076929;28;20281;-67
2023/09/25 02:50:09;;;;;;;3.07;2.07;;;;;;;;;;5076812;28;20276;-66
2023/09/25 02:52:37;;;;;;;3.03;1.77;;;;;;;;;;5076565;28;20227;-66
2023/09/25 02:55:07;;;;;;;4.60;1.97;;;;;;;;;;5076272;28;20601;-66
2023/09/25 02:57:35;;;;;;;4.97;1.90;;;;;;;;;;5076294;28;20221;-67
2023/09/25 03:00:11;;;;;;;3.20;1.63;;;;;;;;;;5076661;28;20210;-66
2023/09/25 03:02:40;;;;;;;3.30;1.87;;;;;;;;;;5074950;28;20198;-66
2023/09/25 03:05:11;;;;;;;5.53;2.03;;;;;;;;;;5076619;28;20233;-66
2023/09/25 03:07:39;;;;;;;2.63;1.57;;;;;;;;;;5076619;28;20229;-66
2023/09/25 03:10:08;;;;;;;2.57;2.37;;;;;;;;;;5079615;28;20214;-66
2023/09/25 03:12:36;;;;;;;1.50;1.40;;;;;;;;;;5080331;28;20194;-65
2023/09/25 03:15:05;;;;;;;4.67;1.90;;;;;;;;;;5080442;28;20264;-65
2023/09/25 03:17:35;;;;;;;4.63;1.63;;;;;;;;;;5080599;28;20669;-67
2023/09/25 03:20:12;;;;;;;2.03;1.60;;;;;;;;;;5078730;28;20228;-67
2023/09/25 03:22:42;;;;;;;3.47;1.80;;;;;;;;;;5078965;28;20202;-66
2023/09/25 03:25:10;;;;;;;2.20;1.57;;;;;;;;;;5079812;28;20205;-65
2023/09/25 03:27:38;;;;;;;4.60;1.70;;;;;;;;;;5080414;28;20202;-65
2023/09/25 03:30:07;;;;;;;2.23;1.50;;;;;;;;;;5080030;28;20237;-65
2023/09/25 03:32:35;;;;;;;4.73;1.80;;;;;;;;;;5080132;28;20210;-66
2023/09/25 03:35:03;;;;;;;2.17;1.97;;;;;;;;;;5080257;28;20202;-64
2023/09/25 03:37:32;;;;;;;2.73;1.80;;;;;;;;;;5079987;28;20569;-63
2023/09/25 03:40:01;;;;;;;4.37;2.93;;;;;;;;;;5079304;28;20272;-65
2023/09/25 03:42:29;;;;;;;6.60;2.30;;;;;;;;;;5080245;28;20206;-65
2023/09/25 03:44:57;;;;;;;6.47;2.00;;;;;;;;;;5080224;28;20236;-64
2023/09/25 03:47:25;;;;;;;3.30;1.63;;;;;;;;;;5080032;28;20232;-64
2023/09/25 03:49:53;;;;;;;1.80;1.67;;;;;;;;;;5079845;28;20228;-65
2023/09/25 03:52:21;;;;;;;5.37;2.33;;;;;;;;;;5079508;28;20309;-64
2023/09/25 03:54:49;;;;;;;5.60;2.20;;;;;;;;;;5078706;28;20206;-65
2023/09/25 03:57:19;;;;;;;4.03;2.23;;;;;;;;;;5079540;28;20194;-65
2023/09/25 03:59:47;;;;;;;4.30;2.33;;;;;;;;;;5078496;28;20253;-66
2023/09/25 04:02:15;;;;;;;6.27;2.00;;;;;;;;;;5079490;28;20206;-66
2023/09/25 04:04:43;;;;;;;5.03;2.30;;;;;;;;;;5078674;28;20206;-66
2023/09/25 04:07:11;;;;;;;2.57;1.77;;;;;;;;;;5078956;28;20230;-66
2023/09/25 04:09:39;;;;;;;3.90;2.17;;;;;;;;;;5078982;28;20214;-66
2023/09/25 04:12:08;;;;;;;3.70;2.40;;;;;;;;;;5079150;28;20214;-66
2023/09/25 04:14:38;;;;;;;3.60;2.30;;;;;;;;;;5066369;28;20233;-65
2023/09/25 04:17:08;;;;;;;5.93;2.50;;;;;;;;;;5079314;28;20206;-66
2023/09/25 04:19:36;;;;;;;4.87;2.20;;;;;;;;;;5079416;28;20238;-66
2023/09/25 04:22:06;;;;;;;3.83;2.27;;;;;;;;;;5079152;28;20213;-66
2023/09/25 04:24:37;;;;;;;2.50;2.30;;;;;;;;;;5079006;28;20285;-66
2023/09/25 04:27:05;;;;;;;3.17;1.90;;;;;;;;;;5079144;28;20232;-66
2023/09/25 04:29:33;;;;;;;2.73;2.00;;;;;;;;;;5079135;28;20268;-65
2023/09/25 04:32:03;;;;;;;3.97;2.10;;;;;;;;;;5078670;28;20237;-66
2023/09/25 04:34:31;;;;;;;2.70;2.00;;;;;;;;;;5079063;28;20214;-66
2023/09/25 04:36:59;;;;;;;7.87;4.87;;;;;;;;;;5079037;28;20210;-65
2023/09/25 04:39:27;;;;;;;3.63;2.10;;;;;;;;;;5078378;28;20206;-66
2023/09/25 04:41:56;;;;;;;4.57;2.10;;;;;;;;;;5078516;28;20222;-65
2023/09/25 04:44:25;;;;;;;3.70;1.73;;;;;;;;;;5078683;28;20742;-65
2023/09/25 04:46:53;;;;;;;4.80;1.87;;;;;;;;;;5072197;28;20223;-65
2023/09/25 04:49:22;;;;;;;3.90;2.00;;;;;;;;;;5074364;28;20616;-63
2023/09/25 04:51:53;;;;;;;4.17;2.10;;;;;;;;;;5078142;28;20715;-64
2023/09/25 04:54:22;;;;;;;4.23;2.30;;;;;;;;;;5078049;28;20241;-65
2023/09/25 04:56:50;;;;;;;2.73;2.00;;;;;;;;;;5078691;28;20203;-64
2023/09/25 04:59:18;;;;;;;3.70;1.73;;;;;;;;;;5077663;28;20565;-64
2023/09/25 05:01:46;;;;;;;4.53;2.60;;;;;;;;;;5076645;28;20222;-64
2023/09/25 05:04:14;;;;;;;3.53;2.07;;;;;;;;;;5078462;28;20224;-64
2023/09/25 05:06:44;;;;;;;2.03;1.83;;;;;;;;;;5078240;28;20755;-65
2023/09/25 05:09:12;;;;;;;2.67;1.83;;;;;;;;;;5078167;28;20206;-64
2023/09/25 05:11:40;;;;;;;2.40;2.20;;;;;;;;;;5078327;28;20276;-65
2023/09/25 05:14:09;;;;;;;3.23;2.03;;;;;;;;;;5077944;28;20212;-65
2023/09/25 05:16:37;;;;;;;2.80;2.57;;;;;;;;;;5077586;28;20198;-64
2023/09/25 05:19:05;;;;;;;2.27;1.87;;;;;;;;;;5077650;28;20256;-65
2023/09/25 05:21:33;;;;;;;3.90;1.80;;;;;;;;;;5077456;28;20226;-64
2023/09/25 05:24:03;;;;;;;2.50;2.30;;;;;;;;;;5077446;28;20209;-65
2023/09/25 05:26:36;;;;;;;2.60;2.40;;;;;;;;;;5074240;28;20221;-65
2023/09/25 05:29:04;;;;;;;2.83;2.00;;;;;;;;;;5077327;28;20565;-64
2023/09/25 05:31:32;;;;;;;4.17;1.93;;;;;;;;;;5077763;28;20632;-65
2023/09/25 05:34:00;;;;;;;2.70;2.20;;;;;;;;;;5077552;28;20273;-66
2023/09/25 05:36:28;;;;;;;5.30;1.93;;;;;;;;;;5078116;28;20202;-66
2023/09/25 05:38:56;;;;;;;3.13;2.30;;;;;;;;;;5077796;28;20547;-65
2023/09/25 05:41:25;;;;;;;2.43;2.00;;;;;;;;;;5077958;28;20225;-66
2023/09/25 05:43:56;;;;;;;5.97;2.20;;;;;;;;;;5077620;28;20227;-67
2023/09/25 05:46:25;;;;;;;2.10;2.00;;;;;;;;;;5077685;28;20195;-67
2023/09/25 05:48:54;;;;;;;2.73;1.83;;;;;;;;;;5077379;28;20724;-67
2023/09/25 05:51:25;;;;;;;5.33;2.17;;;;;;;;;;5077113;28;20591;-67
2023/09/25 05:53:54;;;;;;;5.50;2.80;;;;;;;;;;5077656;28;20202;-66
2023/09/25 05:56:22;;;;;;;4.97;2.60;;;;;;;;;;5077356;28;20566;-67
2023/09/25 05:58:52;;;;;;;2.87;1.90;;;;;;;;;;5077257;28;20209;-66
2023/09/25 06:01:20;;;;;;;3.07;2.03;;;;;;;;;;5077645;28;20230;-66
2023/09/25 06:03:49;;;;;;;3.40;2.30;;;;;;;;;;5077543;28;20252;-66
2023/09/25 06:06:17;;;;;;;4.67;2.40;;;;;;;;;;5077313;28;20240;-66
2023/09/25 06:08:46;;;;;;;7.97;2.30;;;;;;;;;;5077041;28;20313;-66
2023/09/25 06:11:14;;;;;;;3.83;2.27;;;;;;;;;;5077146;28;20226;-65
2023/09/25 06:13:43;;;;;;;3.30;2.20;;;;;;;;;;5077583;28;20221;-67
2023/09/25 06:16:13;;;;;;;2.27;2.00;;;;;;;;;;5077560;28;20217;-67
2023/09/25 06:18:42;;;;;;;3.37;2.03;;;;;;;;;;5077067;28;20206;-66
2023/09/25 06:21:10;;;;;;;6.27;2.37;;;;;;;;;;5077363;28;20226;-66
2023/09/25 06:23:38;;;;;;;5.73;2.73;;;;;;;;;;5077314;28;20567;-70
2023/09/25 06:26:07;;;;;;;4.60;1.83;;;;;;;;;;5076954;28;20734;-72
2023/09/25 06:28:37;;;;;;;4.43;2.13;;;;;;;;;;5077170;28;20226;-72
2023/09/25 06:31:05;;;;;;;3.93;3.00;;;;;;;;;;5077075;28;20218;-72
2023/09/25 06:33:35;;;;;;;5.17;2.60;;;;;;;;;;5077005;28;20217;-72
2023/09/25 06:36:03;;;;;;;3.00;2.37;;;;;;;;;;5077012;28;20210;-72
2023/09/25 06:38:31;;;;;;;5.67;2.87;;;;;;;;;;5077398;28;20213;-71
2023/09/25 06:40:59;;;;;;;5.70;2.63;;;;;;;;;;5077206;28;20271;-72
2023/09/25 06:43:27;;;;;;;3.77;2.63;;;;;;;;;;5081182;28;20217;-72
2023/09/25 06:45:55;;;;;;;4.67;3.13;;;;;;;;;;5080290;28;20650;-72
2023/09/25 06:48:23;;;;;;;5.77;2.60;;;;;;;;;;5074017;28;20225;-73
2023/09/25 06:50:53;;;;;;;4.33;2.40;;;;;;;;;;5075872;28;20911;-73
2023/09/25 06:53:21;;;;;;;5.77;3.10;;;;;;;;;;5069721;28;20241;-73
2023/09/25 06:55:49;;;;;;;8.70;2.20;;;;;;;;;;5080347;28;20285;-73
2023/09/25 06:58:17;;;;;;;8.77;2.90;;;;;;;;;;5080687;28;20202;-73
2023/09/25 07:00:46;;;;;;;5.07;2.50;;;;;;;;;;5080270;28;20272;-73
2023/09/25 07:03:24;;;;;;;3.97;2.60;;;;;;;;;;5078105;28;20202;-72
2023/09/25 07:05:54;;;;;;;5.73;2.63;;;;;;;;;;5076505;28;20210;-71
2023/09/25 07:08:22;;;;;;;4.13;2.80;;;;;;;;;;5088701;28;20244;-71
2023/09/25 07:10:50;;;;;;;4.87;2.53;;;;;;;;;;5080707;28;20317;-71
2023/09/25 07:13:20;;;;;;;3.77;2.90;;;;;;;;;;5080741;28;20221;-71
2023/09/25 07:15:48;;;;;;;5.33;2.70;;;;;;;;;;5080614;28;20202;-71
2023/09/25 07:18:17;;;;;;;3.63;2.03;;;;;;;;;;5081356;28;20253;-72
2023/09/25 07:20:45;;;;;;;4.90;2.77;;;;;;;;;;5079143;28;20678;-72
2023/09/25 07:23:14;;;;;;;4.87;2.37;;;;;;;;;;5066462;28;20631;-73
2023/09/25 07:25:42;;;;;;;6.40;2.87;;;;;;;;;;5077900;28;20229;-71
2023/09/25 07:28:11;;;;;;;3.80;2.80;;;;;;;;;;5075531;28;20272;-72
2023/09/25 07:30:42;;;;;;;8.33;3.10;;;;;;;;;;5080159;28;20238;-72
2023/09/25 07:33:10;;;;;;;3.10;2.60;;;;;;;;;;5080106;28;20242;-72
2023/09/25 07:35:39;;;;;;;3.83;2.50;;;;;;;;;;5079780;28;20221;-72
2023/09/25 07:38:07;;;;;;;2.93;2.60;;;;;;;;;;5073366;28;20254;-71
2023/09/25 07:40:36;;;;;;;7.17;2.70;;;;;;;;;;5075820;28;20248;-72
2023/09/25 07:43:04;;;;;;;8.80;3.10;;;;;;;;;;5079953;28;20680;-72
2023/09/25 07:45:33;;;;;;;8.27;3.43;;;;;;;;;;5079833;28;20289;-72
2023/09/25 07:48:01;;;;;;;6.57;3.20;;;;;;;;;;5079577;28;20256;-72
2023/09/25 07:50:29;;;;;;;7.03;3.63;;;;;;;;;;5079690;28;20226;-72
2023/09/25 07:52:58;;;;;;;6.53;2.60;;;;;;;;;;5079063;28;20229;-71
2023/09/25 07:55:26;;;;;;;5.23;3.23;;;;;;;;;;5075233;28;20670;-71
2023/09/25 07:57:56;;;;;;;5.83;3.00;;;;;;;;;;5079788;28;20202;-71
2023/09/25 08:00:29;;;;;;;6.33;3.20;;;;;;;;;;5079130;28;20230;-72
2023/09/25 08:02:57;;;;;;;8.73;3.23;;;;;;;;;;5079415;28;20662;-72
2023/09/25 08:05:25;;;;;;;4.27;2.63;;;;;;;;;;5079423;28;20683;-72
2023/09/25 08:07:53;;;;;;;5.80;3.00;;;;;;;;;;5079401;28;20230;-72
2023/09/25 08:10:23;;;;;;;5.07;3.30;;;;;;;;;;5079241;28;20233;-72
2023/09/25 08:12:52;;;;;;;8.90;2.97;;;;;;;;;;5069000;28;20616;-72
2023/09/25 08:15:22;;;;;;;4.40;2.80;;;;;;;;;;5079484;28;20213;-72
2023/09/25 08:17:51;;;;;;;7.30;3.50;;;;;;;;;;5079192;28;20265;-72
2023/09/25 08:20:22;;;;;;;8.43;3.53;;;;;;;;;;5078980;28;20226;-72
2023/09/25 08:22:50;;;;;;;9.50;3.37;;;;;;;;;;5079345;28;20206;-72
2023/09/25 08:25:19;;;;;;;5.93;3.13;;;;;;;;;;5078698;28;20202;-71
2023/09/25 08:27:48;;;;;;;5.80;3.20;;;;;;;;;;5079196;28;20260;-72
2023/09/25 08:30:16;;;;;;;9.27;3.73;;;;;;;;;;5068896;28;20226;-72
2023/09/25 08:32:46;;;;;;;8.40;3.87;;;;;;;;;;5077896;28;20263;-72
2023/09/25 08:35:14;;;;;;;7.00;3.67;;;;;;;;;;5079169;28;20202;-74
2023/09/25 08:37:42;;;;;;;7.87;3.43;;;;;;;;;;5073158;28;20203;-74
2023/09/25 08:40:11;;;;;;;5.40;3.17;;;;;;;;;;5074391;28;20279;-74
2023/09/25 08:42:39;;;;;;;7.83;3.60;;;;;;;;;;5078988;28;20260;-74
2023/09/25 08:45:08;;;;;;;5.90;2.90;;;;;;;;;;5078851;28;20218;-73
2023/09/25 08:47:36;;;;;;;8.90;2.90;;;;;;;;;;5078893;28;20210;-71
2023/09/25 08:50:09;;;;;;;7.40;3.13;;;;;;;;;;5078334;28;20685;-71
2023/09/25 08:52:37;;;;;;;9.10;3.60;;;;;;;;;;5064766;28;20230;-72
2023/09/25 08:55:08;;;;;;;9.03;3.40;;;;;;;;;;5078286;28;20221;-71
2023/09/25 08:57:36;;;;;;;6.03;3.37;;;;;;;;;;5078542;28;20293;-72
2023/09/25 09:00:11;;;;;;;8.07;3.87;;;;;;;;;;5078473;28;20222;-71
2023/09/25 09:02:41;;;;;;;9.37;3.67;;;;;;;;;;5073306;28;20252;-71
2023/09/25 09:05:12;;;;;;;5.77;2.67;;;;;;;;;;5070829;28;20247;-71
2023/09/25 09:07:40;;;;;;;8.17;2.93;;;;;;;;;;5059798;28;20198;-71
2023/09/25 09:10:09;;;;;;;6.57;3.07;;;;;;;;;;5060048;28;20675;-69
2023/09/25 09:12:52;;;;;;;3.33;2.07;;;;;;;;;;5076685;28;20259;-69
2023/09/25 09:15:30;;;;;;;4.70;2.40;;;;;;;;;;5068834;28;20293;-71
2023/09/25 09:17:58;;;;;;;3.30;2.10;;;;;;;;;;5078137;28;20209;-67
2023/09/25 09:20:36;;;;;;;2.93;2.13;;;;;;;;;;5075959;28;20275;-67
2023/09/25 09:23:05;;;;;;;5.50;2.20;;;;;;;;;;5078216;28;20209;-67
2023/09/25 09:25:35;;;;;;;5.27;2.17;;;;;;;;;;5071177;28;20213;-70
2023/09/25 09:28:07;;;;;;;2.97;1.93;;;;;;;;;;5067163;28;20205;-68
2023/09/25 09:30:37;;;;;;;4.00;2.23;;;;;;;;;;5076766;28;20716;-68
2023/09/25 09:33:07;;;;;;;4.67;1.87;;;;;;;;;;5077452;28;20570;-67
2023/09/25 09:35:36;;;;;;;3.20;1.70;;;;;;;;;;5077887;28;20206;-69
2023/09/25 09:38:05;;;;;;;4.13;1.80;;;;;;;;;;5077228;28;20210;-68
2023/09/25 09:40:34;;;;;;;3.03;1.90;;;;;;;;;;5076993;28;20222;-67
2023/09/25 09:43:03;;;;;;;4.03;2.00;;;;;;;;;;5071924;28;20207;-68
2023/09/25 09:45:31;;;;;;;2.53;1.60;;;;;;;;;;5066712;28;20236;-71
2023/09/25 09:48:00;;;;;;;3.37;1.83;;;;;;;;;;5077574;28;20209;-72
2023/09/25 09:50:30;;;;;;;2.87;1.40;;;;;;;;;;5077199;28;20230;-72
2023/09/25 09:52:59;;;;;;;2.73;1.90;;;;;;;;;;5077105;28;20238;-72
2023/09/25 09:55:32;;;;;;;3.90;1.60;;;;;;;;;;5077137;28;20206;-67
2023/09/25 09:58:01;;;;;;;2.00;1.70;;;;;;;;;;5077478;28;20206;-67
2023/09/25 10:00:29;;;;;;;3.83;2.00;;;;;;;;;;5066515;28;20247;-69
2023/09/25 10:02:57;;;;;;;2.70;1.80;;;;;;;;;;5076588;28;20233;-67
2023/09/25 10:05:25;;;;;;;6.43;2.10;;;;;;;;;;5065790;28;20206;-67
2023/09/25 10:08:11;;;;;;;3.07;2.03;;;;;;;;;;5074661;28;20263;-69
2023/09/25 10:10:39;;;;;;;5.73;1.80;;;;;;;;;;5071223;28;20230;-68
2023/09/25 10:13:08;;;;;;;5.23;2.03;;;;;;;;;;5077725;28;20202;-68
2023/09/25 10:15:36;;;;;;;4.27;2.00;;;;;;;;;;5078621;28;20210;-67
2023/09/25 10:18:05;;;;;;;4.53;1.90;;;;;;;;;;5081460;28;20715;-68
2023/09/25 10:20:40;;;;;;;4.60;2.20;;;;;;;;;;5081544;28;20237;-69
2023/09/25 10:23:10;;;;;;;3.90;2.23;;;;;;;;;;5081555;28;20263;-68
2023/09/25 10:25:56;;;;;;;2.80;2.20;;;;;;;;;;5080699;28;20201;-68
2023/09/25 10:28:25;;;;;;;3.93;1.77;;;;;;;;;;5081495;28;20210;-69
2023/09/25 10:30:56;;;;;;;5.27;1.57;;;;;;;;;;5081360;28;20230;-68
2023/09/25 10:33:28;;;;;;;2.90;1.70;;;;;;;;;;5081300;28;20258;-67
2023/09/25 10:35:59;;;;;;;3.90;1.63;;;;;;;;;;5081428;28;20206;-67
2023/09/25 10:38:31;;;;;;;6.47;1.80;;;;;;;;;;5079868;28;20202;-67
2023/09/25 10:41:00;;;;;;;2.90;1.50;;;;;;;;;;5072705;28;20221;-66
2023/09/25 10:43:28;;;;;;;4.80;1.73;;;;;;;;;;5067062;28;20563;-67
2023/09/25 10:45:56;;;;;;;4.40;1.73;;;;;;;;;;5073520;28;20215;-65
2023/09/25 10:48:26;;;;;;;2.30;2.10;;;;;;;;;;5080699;28;20211;-66
2023/09/25 10:50:55;;;;;;;2.57;1.57;;;;;;;;;;5074980;28;20234;-65
2023/09/25 10:53:25;;;;;;;3.13;1.90;;;;;;;;;;5067881;28;20287;-66
2023/09/25 10:55:55;;;;;;;1.70;1.40;;;;;;;;;;5080657;28;20213;-66
2023/09/25 10:58:24;;;;;;;2.37;1.30;;;;;;;;;;5080941;28;20293;-66
2023/09/25 11:00:51;;;;;;;1.93;1.47;;;;;;;;;;5080673;28;20252;-66
2023/09/25 11:03:20;;;;;;;2.17;1.30;;;;;;;;;;5069693;28;20213;-65
2023/09/25 11:05:49;;;;;;;2.47;1.73;;;;;;;;;;5080541;28;20233;-65
2023/09/25 11:08:18;;;;;;;2.43;1.20;;;;;;;;;;5080367;28;20214;-65
2023/09/25 11:10:46;;;;;;;3.17;1.77;;;;;;;;;;5079961;28;20254;-66
2023/09/25 11:13:16;;;;;;;5.13;1.50;;;;;;;;;;5080673;28;20259;-66
2023/09/25 11:15:44;;;;;;;1.87;1.30;;;;;;;;;;5073647;28;20202;-68
2023/09/25 11:18:13;;;;;;;3.27;1.47;;;;;;;;;;5072966;28;20213;-65
2023/09/25 11:20:43;;;;;;;1.77;1.53;;;;;;;;;;5079923;28;20563;-65
2023/09/25 11:23:14;;;;;;;3.67;1.10;;;;;;;;;;5080380;28;20210;-66
2023/09/25 11:25:49;;;;;;;2.67;1.17;;;;;;;;;;5079772;28;20210;-65
2023/09/25 11:28:20;;;;;;;2.33;1.20;;;;;;;;;;5079314;28;20714;-66
2023/09/25 11:30:49;;;;;;;4.27;1.67;;;;;;;;;;5079705;28;20236;-65
2023/09/25 11:33:18;;;;;;;3.40;1.73;;;;;;;;;;5079885;28;20277;-67
2023/09/25 11:35:47;;;;;;;2.23;1.47;;;;;;;;;;5080280;28;20217;-66
2023/09/25 11:38:17;;;;;;;3.53;1.40;;;;;;;;;;5079715;28;20677;-66
2023/09/25 11:40:46;;;;;;;4.33;1.30;;;;;;;;;;5079813;28;20225;-66
2023/09/25 11:43:14;;;;;;;2.40;1.27;;;;;;;;;;5079822;28;20206;-66
2023/09/25 11:45:43;;;;;;;3.87;1.50;;;;;;;;;;5080264;28;20231;-66
2023/09/25 11:48:14;;;;;;;4.80;1.30;;;;;;;;;;5077235;28;20207;-66
2023/09/25 11:50:42;;;;;;;2.10;1.30;;;;;;;;;;5071494;28;20250;-65
2023/09/25 11:53:10;;;;;;;2.17;1.60;;;;;;;;;;5079575;28;20234;-65
2023/09/25 11:55:39;;;;;;;2.47;1.10;;;;;;;;;;5079523;28;20711;-66
2023/09/25 11:58:08;;;;;;;4.63;1.60;;;;;;;;;;5079587;28;20202;-65
2023/09/25 12:00:37;;;;;;;1.63;1.50;;;;;;;;;;5079465;28;20218;-67
2023/09/25 12:03:08;;;;;;;7.07;1.50;;;;;;;;;;5079739;28;20209;-65
2023/09/25 12:05:37;;;;;;;2.27;1.37;;;;;;;;;;5080132;28;20210;-65
2023/09/25 12:08:06;;;;;;;4.80;1.50;;;;;;;;;;5079352;28;20241;-66
2023/09/25 12:10:37;;;;;;;2.53;1.33;;;;;;;;;;5078987;28;20265;-66
2023/09/25 12:13:06;;;;;;;4.03;2.53;;;;;;;;;;5079539;28;20207;-66
2023/09/25 12:15:35;;;;;;;1.47;1.37;;;;;;;;;;5079206;28;20256;-66
2023/09/25 12:18:04;;;;;;;2.57;1.40;;;;;;;;;;5079254;28;20260;-66
2023/09/25 12:20:37;;;;;;;3.00;1.30;;;;;;;;;;5079052;28;20219;-66
2023/09/25 12:23:05;;;;;;;2.60;1.57;;;;;;;;;;5079367;28;20207;-66
2023/09/25 12:25:35;;;;;;;1.37;1.03;;;;;;;;;;5078551;28;20198;-65
2023/09/25 12:28:04;;;;;;;1.97;1.30;;;;;;;;;;5067682;28;20674;-66
2023/09/25 12:30:33;;;;;;;3.63;1.40;;;;;;;;;;5069954;28;20237;-66
2023/09/25 12:33:03;;;;;;;2.43;1.30;;;;;;;;;;5078862;28;20214;-65
2023/09/25 12:35:31;;;;;;;3.07;1.33;;;;;;;;;;5079454;28;20232;-66
2023/09/25 12:38:01;;;;;;;2.60;1.60;;;;;;;;;;5078935;28;20291;-67
2023/09/25 12:40:29;;;;;;;4.03;1.87;;;;;;;;;;5077468;28;20220;-67
2023/09/25 12:42:58;;;;;;;2.67;1.40;;;;;;;;;;5078896;28;20258;-65
2023/09/25 12:45:26;;;;;;;5.13;1.70;;;;;;;;;;5078849;28;20208;-65
2023/09/25 12:47:54;;;;;;;2.60;2.40;;;;;;;;;;5078907;28;20215;-66
2023/09/25 12:50:22;;;;;;;2.73;1.60;;;;;;;;;;5078580;28;20226;-66
2023/09/25 12:52:50;;;;;;;4.20;1.97;;;;;;;;;;5078371;28;20601;-66
2023/09/25 12:55:20;;;;;;;1.83;1.60;;;;;;;;;;5078115;28;20202;-65
2023/09/25 12:57:50;;;;;;;3.67;1.70;;;;;;;;;;5078593;28;20212;-66
2023/09/25 13:00:18;;;;;;;3.23;1.77;;;;;;;;;;5078553;28;20231;-67
2023/09/25 13:02:46;;;;;;;1.93;1.80;;;;;;;;;;5078749;28;20211;-65
2023/09/25 13:05:17;;;;;;;2.37;1.50;;;;;;;;;;5078314;28;20582;-65
2023/09/25 13:07:45;;;;;;;1.70;1.60;;;;;;;;;;5078555;28;20208;-65
2023/09/25 13:10:13;;;;;;;5.43;1.70;;;;;;;;;;5077872;28;20227;-66
2023/09/25 13:12:43;;;;;;;3.23;1.90;;;;;;;;;;5078449;28;20572;-65
2023/09/25 13:15:12;;;;;;;1.93;1.60;;;;;;;;;;5078088;28;20578;-66
2023/09/25 13:17:41;;;;;;;2.70;1.53;;;;;;;;;;5078177;28;20205;-66
2023/09/25 13:20:10;;;;;;;3.13;1.90;;;;;;;;;;5077902;28;20711;-66
2023/09/25 13:22:38;;;;;;;1.87;1.17;;;;;;;;;;5077969;28;20207;-65
2023/09/25 13:25:07;;;;;;;1.50;1.40;;;;;;;;;;5077372;28;20209;-66
2023/09/25 13:27:36;;;;;;;3.83;1.80;;;;;;;;;;5078117;28;20217;-66
2023/09/25 13:30:11;;;;;;;4.50;1.40;;;;;;;;;;5078010;28;20282;-66
2023/09/25 13:32:39;;;;;;;3.10;1.57;;;;;;;;;;5077843;28;20231;-66
2023/09/25 13:35:09;;;;;;;3.37;1.40;;;;;;;;;;5078067;28;20212;-66
2023/09/25 13:37:37;;;;;;;2.87;1.97;;;;;;;;;;5077779;28;20631;-65
2023/09/25 13:40:06;;;;;;;2.83;1.47;;;;;;;;;;5077415;28;20228;-67
2023/09/25 13:42:34;;;;;;;2.80;1.70;;;;;;;;;;5077840;28;20241;-67
2023/09/25 13:45:02;;;;;;;1.33;1.23;;;;;;;;;;5077991;28;20209;-67
2023/09/25 13:47:32;;;;;;;3.27;1.43;;;;;;;;;;5077862;28;20208;-67
2023/09/25 13:50:01;;;;;;;3.13;1.63;;;;;;;;;;5077485;28;20233;-67
2023/09/25 13:52:29;;;;;;;2.07;1.70;;;;;;;;;;5077445;28;20238;-67
2023/09/25 13:54:57;;;;;;;2.53;1.60;;;;;;;;;;5077515;28;20217;-67
2023/09/25 13:57:25;;;;;;;2.40;1.63;;;;;;;;;;5077572;28;20214;-67
2023/09/25 13:59:53;;;;;;;2.93;1.40;;;;;;;;;;5077479;28;20209;-66
2023/09/25 14:02:22;;;;;;;2.30;1.40;;;;;;;;;;5077675;28;20254;-66
2023/09/25 14:04:52;;;;;;;2.33;1.60;;;;;;;;;;5077806;28;20661;-66
2023/09/25 14:07:21;;;;;;;2.37;1.80;;;;;;;;;;5077753;28;20206;-67
2023/09/25 14:09:48;;;;;;;3.87;1.60;;;;;;;;;;5077141;28;20612;-67
2023/09/25 14:12:17;;;;;;;4.10;1.43;;;;;;;;;;5077567;28;20226;-67
2023/09/25 14:14:46;;;;;;;1.43;1.33;;;;;;;;;;5077447;28;20210;-67
2023/09/25 14:17:14;;;;;;;4.17;1.63;;;;;;;;;;5077666;28;20206;-67
2023/09/25 14:19:42;;;;;;;4.50;1.97;;;;;;;;;;5077633;28;20203;-67
2023/09/25 14:22:12;;;;;;;2.93;1.57;;;;;;;;;;5077661;28;20208;-67
2023/09/25 14:24:40;;;;;;;1.77;1.50;;;;;;;;;;5076758;28;20219;-67
2023/09/25 14:27:08;;;;;;;2.53;1.70;;;;;;;;;;5077371;28;20234;-67
2023/09/25 14:29:38;;;;;;;2.57;1.67;;;;;;;;;;5071369;28;20201;-67
2023/09/25 14:32:06;;;;;;;2.87;1.30;;;;;;;;;;5073510;28;20238;-67
2023/09/25 14:34:34;;;;;;;3.17;2.53;;;;;;;;;;5077621;28;20266;-67
2023/09/25 14:37:02;;;;;;;4.23;1.67;;;;;;;;;;5077187;28;20208;-67
2023/09/25 14:39:32;;;;;;;1.97;1.67;;;;;;;;;;5077150;28;20213;-67
2023/09/25 14:42:00;;;;;;;2.57;1.60;;;;;;;;;;5075381;28;20221;-67
2023/09/25 14:44:28;;;;;;;2.97;1.63;;;;;;;;;;5077455;28;20213;-67
2023/09/25 14:46:56;;;;;;;6.17;3.33;;;;;;;;;;5077283;28;20214;-67
2023/09/25 14:49:24;;;;;;;4.17;2.40;;;;;;;;;;5077220;28;20657;-67
2023/09/25 14:51:53;;;;;;;2.77;1.80;;;;;;;;;;5076736;28;20665;-67
2023/09/25 14:54:21;;;;;;;2.00;1.73;;;;;;;;;;5076954;28;20219;-67